sensor_id;sensor_type;location;lat;lon;timestamp;P1;durP1;ratioP1;P2;durP2;ratioP2
8488;SDS011;4281;45.772;12.852;2023-05-16T00:01:34;0.80;;;0.80;;
8488;SDS011;4281;45.772;12.852;2023-05-16T00:04:03;0.70;;;0.70;;
8488;SDS011;4281;45.772;12.852;2023-05-16T00:06:32;0.80;;;0.80;;
8488;SDS011;4281;45.772;12.852;2023-05-16T00:09:00;0.60;;;0.60;;
8488;SDS011;4281;45.772;12.852;2023-05-16T00:11:30;1.43;;;0.70;;
8488;SDS011;4281;45.772;12.852;2023-05-16T00:13:58;0.53;;;0.53;;
8488;SDS011;4281;45.772;12.852;2023-05-16T00:16:27;0.87;;;0.80;;
8488;SDS011;4281;45.772;12.852;2023-05-16T00:18:56;0.80;;;0.70;;
8488;SDS011;4281;45.772;12.852;2023-05-16T00:21:25;0.60;;;0.60;;
8488;SDS011;4281;45.772;12.852;2023-05-16T00:23:53;0.77;;;0.77;;
8488;SDS011;4281;45.772;12.852;2023-05-16T00:26:21;1.37;;;0.60;;
8488;SDS011;4281;45.772;12.852;2023-05-16T00:28:50;0.60;;;0.60;;
8488;SDS011;4281;45.772;12.852;2023-05-16T00:31:18;1.17;;;0.60;;
8488;SDS011;4281;45.772;12.852;2023-05-16T00:33:47;1.73;;;0.70;;
8488;SDS011;4281;45.772;12.852;2023-05-16T00:36:15;0.70;;;0.70;;
8488;SDS011;4281;45.772;12.852;2023-05-16T00:38:43;1.00;;;0.90;;
8488;SDS011;4281;45.772;12.852;2023-05-16T00:41:11;0.60;;;0.60;;
8488;SDS011;4281;45.772;12.852;2023-05-16T00:43:38;0.90;;;0.50;;
8488;SDS011;4281;45.772;12.852;2023-05-16T00:46:08;0.70;;;0.70;;
8488;SDS011;4281;45.772;12.852;2023-05-16T00:48:36;0.53;;;0.53;;
8488;SDS011;4281;45.772;12.852;2023-05-16T00:51:03;0.60;;;0.60;;
8488;SDS011;4281;45.772;12.852;2023-05-16T00:53:34;1.00;;;0.80;;
8488;SDS011;4281;45.772;12.852;2023-05-16T00:56:03;1.00;;;0.67;;
8488;SDS011;4281;45.772;12.852;2023-05-16T00:58:32;0.50;;;0.50;;
8488;SDS011;4281;45.772;12.852;2023-05-16T01:01:00;1.67;;;1.07;;
8488;SDS011;4281;45.772;12.852;2023-05-16T01:03:31;0.60;;;0.60;;
8488;SDS011;4281;45.772;12.852;2023-05-16T01:06:00;0.60;;;0.60;;
8488;SDS011;4281;45.772;12.852;2023-05-16T01:08:28;1.20;;;0.80;;
8488;SDS011;4281;45.772;12.852;2023-05-16T01:10:58;0.83;;;0.70;;
8488;SDS011;4281;45.772;12.852;2023-05-16T01:13:30;0.70;;;0.70;;
8488;SDS011;4281;45.772;12.852;2023-05-16T01:16:03;1.20;;;0.90;;
8488;SDS011;4281;45.772;12.852;2023-05-16T01:18:36;0.70;;;0.70;;
8488;SDS011;4281;45.772;12.852;2023-05-16T01:21:09;2.20;;;0.80;;
8488;SDS011;4281;45.772;12.852;2023-05-16T01:23:40;1.80;;;0.80;;
8488;SDS011;4281;45.772;12.852;2023-05-16T01:26:18;0.70;;;0.70;;
8488;SDS011;4281;45.772;12.852;2023-05-16T01:28:48;1.37;;;0.83;;
8488;SDS011;4281;45.772;12.852;2023-05-16T01:31:17;1.53;;;0.70;;
8488;SDS011;4281;45.772;12.852;2023-05-16T01:33:45;1.43;;;0.70;;
8488;SDS011;4281;45.772;12.852;2023-05-16T01:36:16;1.70;;;0.80;;
8488;SDS011;4281;45.772;12.852;2023-05-16T01:38:51;0.77;;;0.77;;
8488;SDS011;4281;45.772;12.852;2023-05-16T01:41:32;0.70;;;0.70;;
8488;SDS011;4281;45.772;12.852;2023-05-16T01:44:04;0.80;;;0.80;;
8488;SDS011;4281;45.772;12.852;2023-05-16T01:46:36;0.73;;;0.67;;
8488;SDS011;4281;45.772;12.852;2023-05-16T01:49:08;2.00;;;0.80;;
8488;SDS011;4281;45.772;12.852;2023-05-16T01:51:43;0.70;;;0.70;;
8488;SDS011;4281;45.772;12.852;2023-05-16T01:54:12;0.80;;;0.80;;
8488;SDS011;4281;45.772;12.852;2023-05-16T01:56:43;1.20;;;0.93;;
8488;SDS011;4281;45.772;12.852;2023-05-16T01:59:17;1.17;;;1.07;;
8488;SDS011;4281;45.772;12.852;2023-05-16T02:01:47;0.87;;;0.87;;
8488;SDS011;4281;45.772;12.852;2023-05-16T02:04:15;0.80;;;0.80;;
8488;SDS011;4281;45.772;12.852;2023-05-16T02:06:43;1.00;;;0.80;;
8488;SDS011;4281;45.772;12.852;2023-05-16T02:09:11;1.73;;;0.97;;
8488;SDS011;4281;45.772;12.852;2023-05-16T02:11:39;0.90;;;0.90;;
8488;SDS011;4281;45.772;12.852;2023-05-16T02:14:08;1.10;;;0.97;;
8488;SDS011;4281;45.772;12.852;2023-05-16T02:16:36;0.93;;;0.90;;
8488;SDS011;4281;45.772;12.852;2023-05-16T02:19:04;1.00;;;0.90;;
8488;SDS011;4281;45.772;12.852;2023-05-16T02:21:32;1.10;;;1.00;;
8488;SDS011;4281;45.772;12.852;2023-05-16T02:24:00;1.63;;;1.07;;
8488;SDS011;4281;45.772;12.852;2023-05-16T02:26:28;0.90;;;0.90;;
8488;SDS011;4281;45.772;12.852;2023-05-16T02:28:55;0.80;;;0.80;;
8488;SDS011;4281;45.772;12.852;2023-05-16T02:31:28;1.07;;;1.00;;
8488;SDS011;4281;45.772;12.852;2023-05-16T02:33:58;0.83;;;0.83;;
8488;SDS011;4281;45.772;12.852;2023-05-16T02:36:26;1.07;;;1.00;;
8488;SDS011;4281;45.772;12.852;2023-05-16T02:38:54;1.27;;;1.03;;
8488;SDS011;4281;45.772;12.852;2023-05-16T02:41:22;1.00;;;0.80;;
8488;SDS011;4281;45.772;12.852;2023-05-16T02:43:50;1.10;;;0.90;;
8488;SDS011;4281;45.772;12.852;2023-05-16T02:46:22;1.10;;;1.00;;
8488;SDS011;4281;45.772;12.852;2023-05-16T02:48:52;1.07;;;0.97;;
8488;SDS011;4281;45.772;12.852;2023-05-16T02:51:21;1.17;;;1.07;;
8488;SDS011;4281;45.772;12.852;2023-05-16T02:53:50;1.00;;;1.00;;
8488;SDS011;4281;45.772;12.852;2023-05-16T02:56:18;1.10;;;1.00;;
8488;SDS011;4281;45.772;12.852;2023-05-16T02:58:47;1.73;;;0.90;;
8488;SDS011;4281;45.772;12.852;2023-05-16T03:01:15;1.07;;;1.00;;
8488;SDS011;4281;45.772;12.852;2023-05-16T03:03:43;0.90;;;0.90;;
8488;SDS011;4281;45.772;12.852;2023-05-16T03:06:13;1.53;;;1.00;;
8488;SDS011;4281;45.772;12.852;2023-05-16T03:08:41;1.10;;;1.00;;
8488;SDS011;4281;45.772;12.852;2023-05-16T03:11:09;1.20;;;1.10;;
8488;SDS011;4281;45.772;12.852;2023-05-16T03:13:37;0.70;;;0.70;;
8488;SDS011;4281;45.772;12.852;2023-05-16T03:16:05;2.40;;;1.00;;
8488;SDS011;4281;45.772;12.852;2023-05-16T03:18:33;1.27;;;1.10;;
8488;SDS011;4281;45.772;12.852;2023-05-16T03:21:01;1.10;;;1.00;;
8488;SDS011;4281;45.772;12.852;2023-05-16T03:23:30;1.57;;;0.83;;
8488;SDS011;4281;45.772;12.852;2023-05-16T03:25:58;0.80;;;0.80;;
8488;SDS011;4281;45.772;12.852;2023-05-16T03:28:26;1.43;;;1.03;;
8488;SDS011;4281;45.772;12.852;2023-05-16T03:30:54;1.50;;;1.03;;
8488;SDS011;4281;45.772;12.852;2023-05-16T03:33:21;2.27;;;1.00;;
8488;SDS011;4281;45.772;12.852;2023-05-16T03:35:50;1.23;;;1.13;;
8488;SDS011;4281;45.772;12.852;2023-05-16T03:38:18;1.17;;;1.13;;
8488;SDS011;4281;45.772;12.852;2023-05-16T03:40:48;1.50;;;1.30;;
8488;SDS011;4281;45.772;12.852;2023-05-16T03:43:16;1.43;;;1.33;;
8488;SDS011;4281;45.772;12.852;2023-05-16T03:45:44;1.57;;;1.43;;
8488;SDS011;4281;45.772;12.852;2023-05-16T03:48:12;1.70;;;1.43;;
8488;SDS011;4281;45.772;12.852;2023-05-16T03:50:40;1.50;;;1.40;;
8488;SDS011;4281;45.772;12.852;2023-05-16T03:53:08;1.50;;;1.40;;
8488;SDS011;4281;45.772;12.852;2023-05-16T03:55:36;3.50;;;1.40;;
8488;SDS011;4281;45.772;12.852;2023-05-16T03:58:05;1.50;;;1.40;;
8488;SDS011;4281;45.772;12.852;2023-05-16T04:00:33;1.27;;;1.00;;
8488;SDS011;4281;45.772;12.852;2023-05-16T04:03:02;1.40;;;1.30;;
8488;SDS011;4281;45.772;12.852;2023-05-16T04:05:30;2.13;;;1.23;;
8488;SDS011;4281;45.772;12.852;2023-05-16T04:07:58;1.20;;;1.10;;
8488;SDS011;4281;45.772;12.852;2023-05-16T04:10:26;1.23;;;1.17;;
8488;SDS011;4281;45.772;12.852;2023-05-16T04:12:54;1.57;;;1.40;;
8488;SDS011;4281;45.772;12.852;2023-05-16T04:15:23;1.40;;;1.30;;
8488;SDS011;4281;45.772;12.852;2023-05-16T04:17:51;1.60;;;1.50;;
8488;SDS011;4281;45.772;12.852;2023-05-16T04:20:19;1.10;;;1.10;;
8488;SDS011;4281;45.772;12.852;2023-05-16T04:22:47;1.10;;;1.00;;
8488;SDS011;4281;45.772;12.852;2023-05-16T04:25:15;1.30;;;1.10;;
8488;SDS011;4281;45.772;12.852;2023-05-16T04:27:43;1.17;;;1.10;;
8488;SDS011;4281;45.772;12.852;2023-05-16T04:30:12;1.10;;;1.00;;
8488;SDS011;4281;45.772;12.852;2023-05-16T04:32:42;1.87;;;1.10;;
8488;SDS011;4281;45.772;12.852;2023-05-16T04:35:09;1.10;;;1.07;;
8488;SDS011;4281;45.772;12.852;2023-05-16T04:37:37;1.00;;;1.00;;
8488;SDS011;4281;45.772;12.852;2023-05-16T04:40:06;1.20;;;1.10;;
8488;SDS011;4281;45.772;12.852;2023-05-16T04:42:35;1.30;;;1.10;;
8488;SDS011;4281;45.772;12.852;2023-05-16T04:45:03;1.47;;;1.20;;
8488;SDS011;4281;45.772;12.852;2023-05-16T04:47:36;1.30;;;1.20;;
8488;SDS011;4281;45.772;12.852;2023-05-16T04:50:06;2.13;;;1.30;;
8488;SDS011;4281;45.772;12.852;2023-05-16T04:52:35;1.30;;;1.20;;
8488;SDS011;4281;45.772;12.852;2023-05-16T04:55:03;1.10;;;1.00;;
8488;SDS011;4281;45.772;12.852;2023-05-16T04:57:32;1.17;;;1.03;;
8488;SDS011;4281;45.772;12.852;2023-05-16T05:00:00;1.57;;;1.30;;
8488;SDS011;4281;45.772;12.852;2023-05-16T05:02:31;1.60;;;1.10;;
8488;SDS011;4281;45.772;12.852;2023-05-16T05:04:58;1.20;;;1.10;;
8488;SDS011;4281;45.772;12.852;2023-05-16T05:07:31;1.20;;;1.10;;
8488;SDS011;4281;45.772;12.852;2023-05-16T05:09:59;0.90;;;0.90;;
8488;SDS011;4281;45.772;12.852;2023-05-16T05:12:26;1.30;;;1.20;;
8488;SDS011;4281;45.772;12.852;2023-05-16T05:14:54;1.67;;;1.03;;
8488;SDS011;4281;45.772;12.852;2023-05-16T05:17:22;1.07;;;1.00;;
8488;SDS011;4281;45.772;12.852;2023-05-16T05:19:50;1.10;;;1.07;;
8488;SDS011;4281;45.772;12.852;2023-05-16T05:22:18;1.23;;;1.13;;
8488;SDS011;4281;45.772;12.852;2023-05-16T05:24:48;1.30;;;1.10;;
8488;SDS011;4281;45.772;12.852;2023-05-16T05:27:15;2.23;;;1.10;;
8488;SDS011;4281;45.772;12.852;2023-05-16T05:29:43;1.27;;;1.17;;
8488;SDS011;4281;45.772;12.852;2023-05-16T05:32:11;1.20;;;1.10;;
8488;SDS011;4281;45.772;12.852;2023-05-16T05:34:39;2.10;;;1.33;;
8488;SDS011;4281;45.772;12.852;2023-05-16T05:37:07;1.13;;;1.07;;
8488;SDS011;4281;45.772;12.852;2023-05-16T05:39:35;1.27;;;1.17;;
8488;SDS011;4281;45.772;12.852;2023-05-16T05:42:04;1.50;;;1.40;;
8488;SDS011;4281;45.772;12.852;2023-05-16T05:44:32;1.40;;;1.30;;
8488;SDS011;4281;45.772;12.852;2023-05-16T05:47:00;1.40;;;1.30;;
8488;SDS011;4281;45.772;12.852;2023-05-16T05:49:28;1.10;;;1.00;;
8488;SDS011;4281;45.772;12.852;2023-05-16T05:51:57;2.30;;;1.27;;
8488;SDS011;4281;45.772;12.852;2023-05-16T05:54:25;1.40;;;1.30;;
8488;SDS011;4281;45.772;12.852;2023-05-16T05:56:53;1.47;;;1.20;;
8488;SDS011;4281;45.772;12.852;2023-05-16T05:59:22;1.90;;;1.20;;
8488;SDS011;4281;45.772;12.852;2023-05-16T06:01:50;2.53;;;1.17;;
8488;SDS011;4281;45.772;12.852;2023-05-16T06:04:18;1.80;;;1.13;;
8488;SDS011;4281;45.772;12.852;2023-05-16T06:06:46;1.20;;;1.10;;
8488;SDS011;4281;45.772;12.852;2023-05-16T06:09:14;2.30;;;1.30;;
8488;SDS011;4281;45.772;12.852;2023-05-16T06:11:42;2.03;;;1.30;;
8488;SDS011;4281;45.772;12.852;2023-05-16T06:14:11;2.10;;;1.60;;
8488;SDS011;4281;45.772;12.852;2023-05-16T06:16:41;1.60;;;1.27;;
8488;SDS011;4281;45.772;12.852;2023-05-16T06:19:10;1.17;;;1.17;;
8488;SDS011;4281;45.772;12.852;2023-05-16T06:21:41;1.60;;;1.37;;
8488;SDS011;4281;45.772;12.852;2023-05-16T06:24:09;1.40;;;1.30;;
8488;SDS011;4281;45.772;12.852;2023-05-16T06:26:37;1.90;;;1.30;;
8488;SDS011;4281;45.772;12.852;2023-05-16T06:29:05;1.30;;;1.03;;
8488;SDS011;4281;45.772;12.852;2023-05-16T06:31:33;2.50;;;1.33;;
8488;SDS011;4281;45.772;12.852;2023-05-16T06:34:03;1.20;;;1.10;;
8488;SDS011;4281;45.772;12.852;2023-05-16T06:36:30;1.30;;;1.20;;
8488;SDS011;4281;45.772;12.852;2023-05-16T06:38:58;1.57;;;1.13;;
8488;SDS011;4281;45.772;12.852;2023-05-16T06:41:26;1.30;;;1.20;;
8488;SDS011;4281;45.772;12.852;2023-05-16T06:43:55;1.57;;;1.30;;
8488;SDS011;4281;45.772;12.852;2023-05-16T06:46:23;2.03;;;1.40;;
8488;SDS011;4281;45.772;12.852;2023-05-16T06:48:51;1.77;;;1.30;;
8488;SDS011;4281;45.772;12.852;2023-05-16T06:51:20;1.43;;;1.20;;
8488;SDS011;4281;45.772;12.852;2023-05-16T06:53:48;1.60;;;1.20;;
8488;SDS011;4281;45.772;12.852;2023-05-16T06:56:16;2.07;;;1.27;;
8488;SDS011;4281;45.772;12.852;2023-05-16T06:58:44;1.30;;;1.20;;
8488;SDS011;4281;45.772;12.852;2023-05-16T07:01:12;1.33;;;1.23;;
8488;SDS011;4281;45.772;12.852;2023-05-16T07:03:40;1.40;;;1.30;;
8488;SDS011;4281;45.772;12.852;2023-05-16T07:06:08;1.37;;;1.27;;
8488;SDS011;4281;45.772;12.852;2023-05-16T07:08:38;1.20;;;1.10;;
8488;SDS011;4281;45.772;12.852;2023-05-16T07:11:06;1.30;;;1.20;;
8488;SDS011;4281;45.772;12.852;2023-05-16T07:13:34;2.13;;;1.40;;
8488;SDS011;4281;45.772;12.852;2023-05-16T07:16:02;1.53;;;1.43;;
8488;SDS011;4281;45.772;12.852;2023-05-16T07:18:30;1.83;;;1.40;;
8488;SDS011;4281;45.772;12.852;2023-05-16T07:20:58;1.30;;;1.20;;
8488;SDS011;4281;45.772;12.852;2023-05-16T07:23:26;2.13;;;1.33;;
8488;SDS011;4281;45.772;12.852;2023-05-16T07:25:55;1.40;;;1.30;;
8488;SDS011;4281;45.772;12.852;2023-05-16T07:28:23;1.77;;;1.40;;
8488;SDS011;4281;45.772;12.852;2023-05-16T07:30:51;2.70;;;1.63;;
8488;SDS011;4281;45.772;12.852;2023-05-16T07:33:19;2.10;;;1.50;;
8488;SDS011;4281;45.772;12.852;2023-05-16T07:35:48;1.30;;;1.20;;
8488;SDS011;4281;45.772;12.852;2023-05-16T07:38:19;1.63;;;1.43;;
8488;SDS011;4281;45.772;12.852;2023-05-16T07:40:47;2.17;;;1.40;;
8488;SDS011;4281;45.772;12.852;2023-05-16T07:43:17;1.30;;;1.20;;
8488;SDS011;4281;45.772;12.852;2023-05-16T07:45:45;1.47;;;1.37;;
8488;SDS011;4281;45.772;12.852;2023-05-16T07:48:13;1.30;;;1.20;;
8488;SDS011;4281;45.772;12.852;2023-05-16T07:50:41;1.60;;;1.50;;
8488;SDS011;4281;45.772;12.852;2023-05-16T07:53:09;2.60;;;1.70;;
8488;SDS011;4281;45.772;12.852;2023-05-16T07:55:37;1.70;;;1.60;;
8488;SDS011;4281;45.772;12.852;2023-05-16T07:58:05;1.80;;;1.40;;
8488;SDS011;4281;45.772;12.852;2023-05-16T08:00:35;1.73;;;1.40;;
8488;SDS011;4281;45.772;12.852;2023-05-16T08:03:03;2.07;;;1.60;;
8488;SDS011;4281;45.772;12.852;2023-05-16T08:05:32;1.40;;;1.27;;
8488;SDS011;4281;45.772;12.852;2023-05-16T08:08:00;2.40;;;1.40;;
8488;SDS011;4281;45.772;12.852;2023-05-16T08:10:27;1.47;;;1.37;;
8488;SDS011;4281;45.772;12.852;2023-05-16T08:12:55;1.47;;;1.37;;
8488;SDS011;4281;45.772;12.852;2023-05-16T08:15:26;1.63;;;1.20;;
8488;SDS011;4281;45.772;12.852;2023-05-16T08:17:57;1.47;;;1.17;;
8488;SDS011;4281;45.772;12.852;2023-05-16T08:20:25;1.33;;;1.17;;
8488;SDS011;4281;45.772;12.852;2023-05-16T08:22:53;1.20;;;1.10;;
8488;SDS011;4281;45.772;12.852;2023-05-16T08:25:21;1.23;;;1.10;;
8488;SDS011;4281;45.772;12.852;2023-05-16T08:27:49;3.60;;;1.10;;
8488;SDS011;4281;45.772;12.852;2023-05-16T08:30:17;2.23;;;1.03;;
8488;SDS011;4281;45.772;12.852;2023-05-16T08:32:45;1.20;;;1.10;;
8488;SDS011;4281;45.772;12.852;2023-05-16T08:35:14;2.03;;;1.23;;
8488;SDS011;4281;45.772;12.852;2023-05-16T08:37:42;1.30;;;1.20;;
8488;SDS011;4281;45.772;12.852;2023-05-16T08:40:10;2.13;;;1.07;;
8488;SDS011;4281;45.772;12.852;2023-05-16T08:42:40;1.40;;;1.30;;
8488;SDS011;4281;45.772;12.852;2023-05-16T08:45:10;1.90;;;1.20;;
8488;SDS011;4281;45.772;12.852;2023-05-16T08:47:38;1.20;;;1.10;;
8488;SDS011;4281;45.772;12.852;2023-05-16T08:50:08;1.50;;;1.00;;
8488;SDS011;4281;45.772;12.852;2023-05-16T08:52:38;2.60;;;1.10;;
8488;SDS011;4281;45.772;12.852;2023-05-16T08:55:07;1.67;;;1.20;;
8488;SDS011;4281;45.772;12.852;2023-05-16T08:57:37;1.40;;;0.90;;
8488;SDS011;4281;45.772;12.852;2023-05-16T09:00:06;1.43;;;0.90;;
8488;SDS011;4281;45.772;12.852;2023-05-16T09:02:38;1.10;;;1.00;;
8488;SDS011;4281;45.772;12.852;2023-05-16T09:05:07;1.20;;;1.00;;
8488;SDS011;4281;45.772;12.852;2023-05-16T09:07:37;1.53;;;1.00;;
8488;SDS011;4281;45.772;12.852;2023-05-16T09:10:06;1.50;;;1.00;;
8488;SDS011;4281;45.772;12.852;2023-05-16T09:12:34;1.10;;;0.70;;
8488;SDS011;4281;45.772;12.852;2023-05-16T09:15:03;1.53;;;0.80;;
8488;SDS011;4281;45.772;12.852;2023-05-16T09:17:33;1.67;;;0.80;;
8488;SDS011;4281;45.772;12.852;2023-05-16T09:20:10;0.70;;;0.60;;
8488;SDS011;4281;45.772;12.852;2023-05-16T09:22:48;0.70;;;0.70;;
8488;SDS011;4281;45.772;12.852;2023-05-16T09:25:17;0.80;;;0.80;;
8488;SDS011;4281;45.772;12.852;2023-05-16T09:27:57;1.50;;;0.80;;
8488;SDS011;4281;45.772;12.852;2023-05-16T09:30:28;1.47;;;0.70;;
8488;SDS011;4281;45.772;12.852;2023-05-16T09:32:57;2.10;;;0.80;;
8488;SDS011;4281;45.772;12.852;2023-05-16T09:35:25;1.10;;;0.70;;
8488;SDS011;4281;45.772;12.852;2023-05-16T09:38:13;1.40;;;0.73;;
8488;SDS011;4281;45.772;12.852;2023-05-16T09:40:42;0.57;;;0.57;;
8488;SDS011;4281;45.772;12.852;2023-05-16T09:43:13;0.80;;;0.60;;
8488;SDS011;4281;45.772;12.852;2023-05-16T09:45:44;1.20;;;0.67;;
8488;SDS011;4281;45.772;12.852;2023-05-16T09:48:12;0.50;;;0.50;;
8488;SDS011;4281;45.772;12.852;2023-05-16T09:50:45;0.97;;;0.73;;
8488;SDS011;4281;45.772;12.852;2023-05-16T09:53:18;2.23;;;0.80;;
8488;SDS011;4281;45.772;12.852;2023-05-16T09:55:58;1.90;;;0.80;;
8488;SDS011;4281;45.772;12.852;2023-05-16T09:58:27;1.60;;;0.70;;
8488;SDS011;4281;45.772;12.852;2023-05-16T10:00:56;0.90;;;0.70;;
8488;SDS011;4281;45.772;12.852;2023-05-16T10:03:24;0.90;;;0.80;;
8488;SDS011;4281;45.772;12.852;2023-05-16T10:05:53;1.00;;;0.90;;
8488;SDS011;4281;45.772;12.852;2023-05-16T10:08:22;1.03;;;0.80;;
8488;SDS011;4281;45.772;12.852;2023-05-16T10:10:51;1.33;;;0.80;;
8488;SDS011;4281;45.772;12.852;2023-05-16T10:13:21;0.80;;;0.80;;
8488;SDS011;4281;45.772;12.852;2023-05-16T10:15:49;1.17;;;0.80;;
8488;SDS011;4281;45.772;12.852;2023-05-16T10:18:17;0.70;;;0.60;;
8488;SDS011;4281;45.772;12.852;2023-05-16T10:20:48;0.90;;;0.60;;
8488;SDS011;4281;45.772;12.852;2023-05-16T10:23:19;0.60;;;0.60;;
8488;SDS011;4281;45.772;12.852;2023-05-16T10:25:49;0.50;;;0.50;;
8488;SDS011;4281;45.772;12.852;2023-05-16T10:28:17;1.37;;;0.80;;
8488;SDS011;4281;45.772;12.852;2023-05-16T10:30:45;0.80;;;0.60;;
8488;SDS011;4281;45.772;12.852;2023-05-16T10:33:14;0.50;;;0.50;;
8488;SDS011;4281;45.772;12.852;2023-05-16T10:35:43;2.13;;;0.60;;
8488;SDS011;4281;45.772;12.852;2023-05-16T10:38:12;0.50;;;0.50;;
8488;SDS011;4281;45.772;12.852;2023-05-16T10:40:41;0.40;;;0.40;;
8488;SDS011;4281;45.772;12.852;2023-05-16T10:43:13;1.00;;;0.60;;
8488;SDS011;4281;45.772;12.852;2023-05-16T10:45:54;0.60;;;0.50;;
8488;SDS011;4281;45.772;12.852;2023-05-16T10:48:29;1.03;;;0.50;;
8488;SDS011;4281;45.772;12.852;2023-05-16T10:50:58;1.17;;;1.00;;
8488;SDS011;4281;45.772;12.852;2023-05-16T10:53:29;0.60;;;0.60;;
8488;SDS011;4281;45.772;12.852;2023-05-16T10:56:07;0.77;;;0.60;;
8488;SDS011;4281;45.772;12.852;2023-05-16T10:58:43;0.50;;;0.50;;
8488;SDS011;4281;45.772;12.852;2023-05-16T11:01:19;2.10;;;0.43;;
8488;SDS011;4281;45.772;12.852;2023-05-16T11:04:01;1.37;;;0.40;;
8488;SDS011;4281;45.772;12.852;2023-05-16T11:06:34;0.40;;;0.40;;
8488;SDS011;4281;45.772;12.852;2023-05-16T11:09:19;0.50;;;0.50;;
8488;SDS011;4281;45.772;12.852;2023-05-16T11:11:55;0.50;;;0.50;;
8488;SDS011;4281;45.772;12.852;2023-05-16T11:14:35;1.47;;;0.60;;
8488;SDS011;4281;45.772;12.852;2023-05-16T11:17:08;0.73;;;0.50;;
8488;SDS011;4281;45.772;12.852;2023-05-16T11:19:39;0.40;;;0.40;;
8488;SDS011;4281;45.772;12.852;2023-05-16T11:22:12;1.67;;;0.50;;
8488;SDS011;4281;45.772;12.852;2023-05-16T11:24:55;0.40;;;0.40;;
8488;SDS011;4281;45.772;12.852;2023-05-16T11:27:26;0.80;;;0.60;;
8488;SDS011;4281;45.772;12.852;2023-05-16T11:29:59;1.33;;;0.43;;
8488;SDS011;4281;45.772;12.852;2023-05-16T11:32:30;0.43;;;0.40;;
8488;SDS011;4281;45.772;12.852;2023-05-16T11:34:58;1.23;;;0.40;;
8488;SDS011;4281;45.772;12.852;2023-05-16T11:37:26;1.57;;;0.50;;
8488;SDS011;4281;45.772;12.852;2023-05-16T11:39:57;0.40;;;0.40;;
8488;SDS011;4281;45.772;12.852;2023-05-16T11:42:27;1.57;;;0.60;;
8488;SDS011;4281;45.772;12.852;2023-05-16T11:45:03;2.40;;;0.80;;
8488;SDS011;4281;45.772;12.852;2023-05-16T11:47:32;0.53;;;0.50;;
8488;SDS011;4281;45.772;12.852;2023-05-16T11:50:02;1.57;;;0.53;;
8488;SDS011;4281;45.772;12.852;2023-05-16T11:52:31;0.67;;;0.60;;
8488;SDS011;4281;45.772;12.852;2023-05-16T11:54:59;1.70;;;0.50;;
8488;SDS011;4281;45.772;12.852;2023-05-16T11:57:27;0.97;;;0.40;;
8488;SDS011;4281;45.772;12.852;2023-05-16T11:59:55;0.70;;;0.50;;
8488;SDS011;4281;45.772;12.852;2023-05-16T12:02:24;0.73;;;0.40;;
8488;SDS011;4281;45.772;12.852;2023-05-16T12:04:55;0.40;;;0.40;;
8488;SDS011;4281;45.772;12.852;2023-05-16T12:07:26;0.60;;;0.50;;
8488;SDS011;4281;45.772;12.852;2023-05-16T12:09:54;1.43;;;0.40;;
8488;SDS011;4281;45.772;12.852;2023-05-16T12:12:22;0.50;;;0.40;;
8488;SDS011;4281;45.772;12.852;2023-05-16T12:14:50;1.03;;;0.40;;
8488;SDS011;4281;45.772;12.852;2023-05-16T12:17:19;1.23;;;0.50;;
8488;SDS011;4281;45.772;12.852;2023-05-16T12:19:49;0.40;;;0.40;;
8488;SDS011;4281;45.772;12.852;2023-05-16T12:22:18;1.27;;;0.50;;
8488;SDS011;4281;45.772;12.852;2023-05-16T12:24:46;1.03;;;0.60;;
8488;SDS011;4281;45.772;12.852;2023-05-16T12:27:20;1.03;;;0.63;;
8488;SDS011;4281;45.772;12.852;2023-05-16T12:29:48;2.10;;;0.70;;
8488;SDS011;4281;45.772;12.852;2023-05-16T12:32:16;2.37;;;0.70;;
8488;SDS011;4281;45.772;12.852;2023-05-16T12:34:47;2.63;;;0.90;;
8488;SDS011;4281;45.772;12.852;2023-05-16T12:37:17;1.63;;;0.90;;
8488;SDS011;4281;45.772;12.852;2023-05-16T12:39:45;0.90;;;0.83;;
8488;SDS011;4281;45.772;12.852;2023-05-16T12:42:14;0.53;;;0.53;;
8488;SDS011;4281;45.772;12.852;2023-05-16T12:44:43;1.20;;;0.70;;
8488;SDS011;4281;45.772;12.852;2023-05-16T12:47:12;0.80;;;0.63;;
8488;SDS011;4281;45.772;12.852;2023-05-16T12:49:43;1.10;;;0.60;;
8488;SDS011;4281;45.772;12.852;2023-05-16T12:52:17;0.90;;;0.70;;
8488;SDS011;4281;45.772;12.852;2023-05-16T12:54:46;1.40;;;0.70;;
8488;SDS011;4281;45.772;12.852;2023-05-16T12:57:16;0.70;;;0.57;;
8488;SDS011;4281;45.772;12.852;2023-05-16T12:59:45;0.60;;;0.50;;
8488;SDS011;4281;45.772;12.852;2023-05-16T13:02:13;0.80;;;0.50;;
8488;SDS011;4281;45.772;12.852;2023-05-16T13:04:42;1.43;;;0.60;;
8488;SDS011;4281;45.772;12.852;2023-05-16T13:07:09;1.23;;;0.70;;
8488;SDS011;4281;45.772;12.852;2023-05-16T13:09:39;0.67;;;0.60;;
8488;SDS011;4281;45.772;12.852;2023-05-16T13:12:07;0.57;;;0.57;;
8488;SDS011;4281;45.772;12.852;2023-05-16T13:14:36;0.77;;;0.77;;
8488;SDS011;4281;45.772;12.852;2023-05-16T13:17:05;1.73;;;0.77;;
8488;SDS011;4281;45.772;12.852;2023-05-16T13:19:33;0.50;;;0.50;;
8488;SDS011;4281;45.772;12.852;2023-05-16T13:22:01;0.70;;;0.70;;
8488;SDS011;4281;45.772;12.852;2023-05-16T13:24:31;0.80;;;0.80;;
8488;SDS011;4281;45.772;12.852;2023-05-16T13:27:00;0.70;;;0.70;;
8488;SDS011;4281;45.772;12.852;2023-05-16T13:29:29;1.20;;;0.70;;
8488;SDS011;4281;45.772;12.852;2023-05-16T13:31:57;1.00;;;0.60;;
8488;SDS011;4281;45.772;12.852;2023-05-16T13:34:25;0.70;;;0.70;;
8488;SDS011;4281;45.772;12.852;2023-05-16T13:36:53;0.60;;;0.60;;
8488;SDS011;4281;45.772;12.852;2023-05-16T13:39:21;1.73;;;0.60;;
8488;SDS011;4281;45.772;12.852;2023-05-16T13:41:49;0.83;;;0.77;;
8488;SDS011;4281;45.772;12.852;2023-05-16T13:44:21;0.70;;;0.70;;
8488;SDS011;4281;45.772;12.852;2023-05-16T13:46:49;1.27;;;0.70;;
8488;SDS011;4281;45.772;12.852;2023-05-16T13:49:17;0.93;;;0.70;;
8488;SDS011;4281;45.772;12.852;2023-05-16T13:51:45;0.87;;;0.87;;
8488;SDS011;4281;45.772;12.852;2023-05-16T13:54:13;0.80;;;0.80;;
8488;SDS011;4281;45.772;12.852;2023-05-16T13:56:42;2.17;;;0.80;;
8488;SDS011;4281;45.772;12.852;2023-05-16T13:59:10;0.90;;;0.90;;
8488;SDS011;4281;45.772;12.852;2023-05-16T14:01:50;2.40;;;1.00;;
8488;SDS011;4281;45.772;12.852;2023-05-16T14:04:18;1.13;;;0.80;;
8488;SDS011;4281;45.772;12.852;2023-05-16T14:06:46;0.60;;;0.60;;
8488;SDS011;4281;45.772;12.852;2023-05-16T14:09:14;1.33;;;0.67;;
8488;SDS011;4281;45.772;12.852;2023-05-16T14:11:42;0.60;;;0.60;;
8488;SDS011;4281;45.772;12.852;2023-05-16T14:14:10;0.60;;;0.60;;
8488;SDS011;4281;45.772;12.852;2023-05-16T14:16:38;0.87;;;0.70;;
8488;SDS011;4281;45.772;12.852;2023-05-16T14:19:12;0.83;;;0.50;;
8488;SDS011;4281;45.772;12.852;2023-05-16T14:21:44;0.53;;;0.50;;
8488;SDS011;4281;45.772;12.852;2023-05-16T14:24:12;0.70;;;0.60;;
8488;SDS011;4281;45.772;12.852;2023-05-16T14:26:40;0.60;;;0.60;;
8488;SDS011;4281;45.772;12.852;2023-05-16T14:29:07;0.50;;;0.50;;
8488;SDS011;4281;45.772;12.852;2023-05-16T14:31:36;1.90;;;0.50;;
8488;SDS011;4281;45.772;12.852;2023-05-16T14:34:05;0.63;;;0.50;;
8488;SDS011;4281;45.772;12.852;2023-05-16T14:36:34;0.97;;;0.50;;
8488;SDS011;4281;45.772;12.852;2023-05-16T14:39:02;1.60;;;0.50;;
8488;SDS011;4281;45.772;12.852;2023-05-16T14:41:30;0.93;;;0.40;;
8488;SDS011;4281;45.772;12.852;2023-05-16T14:43:58;0.43;;;0.43;;
8488;SDS011;4281;45.772;12.852;2023-05-16T14:46:26;0.80;;;0.60;;
8488;SDS011;4281;45.772;12.852;2023-05-16T14:48:54;0.97;;;0.50;;
8488;SDS011;4281;45.772;12.852;2023-05-16T14:51:24;0.40;;;0.40;;
8488;SDS011;4281;45.772;12.852;2023-05-16T14:53:54;0.50;;;0.50;;
8488;SDS011;4281;45.772;12.852;2023-05-16T14:56:22;0.60;;;0.50;;
8488;SDS011;4281;45.772;12.852;2023-05-16T14:58:53;0.53;;;0.50;;
8488;SDS011;4281;45.772;12.852;2023-05-16T15:01:21;0.50;;;0.50;;
8488;SDS011;4281;45.772;12.852;2023-05-16T15:03:49;1.70;;;0.50;;
8488;SDS011;4281;45.772;12.852;2023-05-16T15:06:21;0.50;;;0.50;;
8488;SDS011;4281;45.772;12.852;2023-05-16T15:08:49;0.67;;;0.60;;
8488;SDS011;4281;45.772;12.852;2023-05-16T15:11:19;0.60;;;0.60;;
8488;SDS011;4281;45.772;12.852;2023-05-16T15:13:47;0.60;;;0.60;;